Accueil
METAR-TAF:

METAR-TAF

Aéroports :

Base aérienne

Tulln an der Donau, Autriche

latitude: 48-19N, longitude: 016-07E, altitude: 175 m

METAR: absent

Heure: 11:58 (09:58 UTC)

Prévision

Le bulletin a été fait il y a 1 heure et 43 minutes, à 08:15 UTC
Prévision valable du 17 à 09 UTC au 17 à 18 UTC
Vent 5 kt de ouest
Visibilité 10 km ou plus
Quelques nuages à une hauteur de 5000 ft
Evoluant progressivement
du 17 à 10 UTC au 17 à 12 UTC
Vent 5 kt de est
Quelques nuages à une hauteur de 5000 ft
Nuages épars à une hauteur de 14000 ft

TAF: LOXT 170815Z 1709/1718 26005KT 9999 FEW050 BECMG 1710/1712 10005KT FEW050 SCT140

Observations et prévisions météorologiques de plus de 4000 aéroports (messages METAR et TAF).

Les stations disponibles sont représentées par des disques jaunes et rouges sur la carte.

Passer la souris dessus pour voir le nom de la station.

Cliquer dessus pour voir les observations et prévisions météorologiques.

Pour changer de carte: cliquez sur les boutons verts avec une croix noire pour zoomer, sur le bouton vert avec un tiret pour effectuer un zoom arrière, ou sur les flèches vertes pour les cartes adjacentes.


METAR-TAF: